createdAt,value
2022-09-28T05:22:24.223Z,9.90
2022-09-28T05:24:51.784Z,9.90
2022-09-28T05:27:18.781Z,10.00
2022-09-28T05:34:25.442Z,10.00
2022-09-28T05:36:56.692Z,10.10
2022-09-28T05:39:23.820Z,10.10
2022-09-28T05:41:50.662Z,10.10
2022-09-28T05:44:17.873Z,10.10
2022-09-28T05:46:44.856Z,10.20
2022-09-28T05:49:13.097Z,10.20
2022-09-28T05:51:41.092Z,10.30
2022-09-28T05:54:09.210Z,10.30
2022-09-28T05:56:40.473Z,10.40
2022-09-28T05:59:10.166Z,10.40
2022-09-28T06:01:37.220Z,10.40
2022-09-28T06:04:10.322Z,10.50
2022-09-28T06:06:39.870Z,10.50
2022-09-28T06:09:06.882Z,10.50
2022-09-28T06:11:34.024Z,10.50
2022-09-28T06:14:23.671Z,10.50
2022-09-28T06:16:50.681Z,10.30
2022-09-28T06:19:17.770Z,10.30
2022-09-28T06:22:07.579Z,10.20
2022-09-28T06:24:42.522Z,10.30
2022-09-28T06:27:09.560Z,10.30
2022-09-28T06:29:36.989Z,10.30
2022-09-28T06:32:04.081Z,10.30
2022-09-28T06:34:33.276Z,10.30
2022-09-28T06:37:00.253Z,10.30
2022-09-28T06:39:28.305Z,10.30
2022-09-28T06:41:55.354Z,10.40
2022-09-28T06:44:22.280Z,10.30
2022-09-28T06:47:07.854Z,10.40
2022-09-28T06:50:12.308Z,10.40
2022-09-28T06:53:06.818Z,10.40
2022-09-28T06:55:59.943Z,10.50
2022-09-28T06:58:28.917Z,10.50
2022-09-28T07:01:00.786Z,10.40
2022-09-28T07:03:32.513Z,10.50
2022-09-28T07:06:18.436Z,10.50
2022-09-28T07:09:28.629Z,10.60
2022-09-28T07:12:10.258Z,10.70
2022-09-28T07:15:03.863Z,11.00
2022-09-28T07:17:41.127Z,11.10
2022-09-28T07:20:19.363Z,11.20
2022-09-28T07:23:10.227Z,11.40
2022-09-28T07:26:09.646Z,11.60
2022-09-28T07:28:59.221Z,11.80
2022-09-28T07:31:48.635Z,11.90
2022-09-28T07:34:40.003Z,11.90
2022-09-28T07:37:14.411Z,11.90
2022-09-28T07:40:03.118Z,11.80
2022-09-28T07:42:32.537Z,11.90
2022-09-28T07:45:02.095Z,11.90
2022-09-28T07:47:34.611Z,12.10
2022-09-28T07:50:32.153Z,12.20
2022-09-28T07:53:26.447Z,12.10
2022-09-28T07:56:31.505Z,12.10
2022-09-28T07:59:20.366Z,11.70
2022-09-28T08:02:12.578Z,11.70
2022-09-28T08:04:43.016Z,11.70
2022-09-28T08:07:11.458Z,11.70
2022-09-28T08:09:39.608Z,11.70
2022-09-28T08:12:42.073Z,11.70
2022-09-28T08:15:27.606Z,11.80
2022-09-28T08:18:10.565Z,11.90
2022-09-28T08:20:56.912Z,11.90
2022-09-28T08:23:23.958Z,11.90
2022-09-28T08:25:54.169Z,12.00
2022-09-28T08:28:24.080Z,12.00
2022-09-28T08:30:54.367Z,12.10
2022-09-28T08:33:42.445Z,11.90
2022-09-28T08:36:30.188Z,11.90
2022-09-28T08:39:15.616Z,12.20
2022-09-28T08:42:40.891Z,12.40
2022-09-28T08:45:43.693Z,12.30
2022-09-28T08:49:20.611Z,12.30
2022-09-28T08:52:12.471Z,12.50
2022-09-28T08:55:22.000Z,12.50
2022-09-28T08:58:09.346Z,12.60
2022-09-28T09:00:45.508Z,12.80
2022-09-28T09:03:14.899Z,12.80
2022-09-28T09:05:52.599Z,12.90
2022-09-28T09:08:53.976Z,13.00
2022-09-28T09:11:35.647Z,13.00
2022-09-28T09:14:35.198Z,13.20
2022-09-28T09:17:37.626Z,13.40
2022-09-28T09:20:43.542Z,13.60
2022-09-28T09:23:39.216Z,13.60
2022-09-28T09:26:25.917Z,13.70
2022-09-28T09:29:18.367Z,13.80
2022-09-28T09:32:04.485Z,14.10
2022-09-28T09:34:53.482Z,14.10
2022-09-28T09:38:03.217Z,14.20
2022-09-28T09:41:20.735Z,14.00
2022-09-28T09:44:41.348Z,14.10
2022-09-28T09:47:49.157Z,14.20
2022-09-28T09:50:34.142Z,14.50
2022-09-28T09:53:24.117Z,14.50
2022-09-28T09:55:58.264Z,14.60
2022-09-28T09:58:37.785Z,14.70
2022-09-28T10:01:37.306Z,15.10
2022-09-28T10:04:27.406Z,14.90
2022-09-28T10:07:06.721Z,14.90
2022-09-28T10:09:40.046Z,15.30
2022-09-28T10:12:27.263Z,15.50
2022-09-28T10:14:56.100Z,15.70
2022-09-28T10:17:27.708Z,15.90
2022-09-28T10:20:19.876Z,15.90
2022-09-28T10:23:15.851Z,16.00
2022-09-28T10:25:45.203Z,16.00
2022-09-28T10:28:21.763Z,15.90
2022-09-28T10:30:53.925Z,15.70
2022-09-28T10:33:35.150Z,15.70
2022-09-28T10:36:07.016Z,15.50
2022-09-28T10:38:34.368Z,15.60
2022-09-28T10:41:13.587Z,15.70
2022-09-28T10:44:11.048Z,15.60
2022-09-28T10:47:07.991Z,15.60
2022-09-28T10:49:47.410Z,15.80
2022-09-28T10:52:46.414Z,15.70
2022-09-28T10:55:37.093Z,15.60
2022-09-28T10:58:27.722Z,15.50
2022-09-28T11:01:04.032Z,15.30
2022-09-28T11:03:31.865Z,15.30
2022-09-28T11:06:07.995Z,15.50
2022-09-28T11:08:41.806Z,15.40
2022-09-28T11:11:15.245Z,15.80
2022-09-28T11:13:54.830Z,15.60
2022-09-28T11:16:28.766Z,14.90
2022-09-28T11:18:58.545Z,14.80
2022-09-28T11:21:28.819Z,14.70
2022-09-28T11:24:09.150Z,14.70
2022-09-28T11:26:43.833Z,14.70
2022-09-28T11:29:41.900Z,14.40
2022-09-28T11:32:39.779Z,14.60
2022-09-28T11:35:45.397Z,14.60
2022-09-28T11:38:53.687Z,14.60
2022-09-28T11:41:38.369Z,14.50
2022-09-28T11:44:37.696Z,14.30
2022-09-28T11:47:47.231Z,14.30
2022-09-28T11:50:27.598Z,14.60
2022-09-28T11:53:03.661Z,14.50
2022-09-28T11:55:45.828Z,14.60
2022-09-28T11:58:33.222Z,14.50
2022-09-28T12:01:21.025Z,14.40
2022-09-28T12:04:35.422Z,14.70
2022-09-28T12:07:30.244Z,14.70
2022-09-28T12:10:10.334Z,14.70
2022-09-28T12:13:01.641Z,14.50
2022-09-28T12:16:38.382Z,14.70
2022-09-28T12:19:17.420Z,14.90
2022-09-28T12:21:51.311Z,15.10
2022-09-28T12:24:42.366Z,15.20
2022-09-28T12:27:25.175Z,15.10
2022-09-28T12:30:01.778Z,15.20
2022-09-28T12:32:41.485Z,15.20
2022-09-28T12:35:13.701Z,15.10
2022-09-28T12:38:20.535Z,15.10
2022-09-28T12:40:53.869Z,14.90
2022-09-28T12:43:33.614Z,14.90
2022-09-28T12:46:30.713Z,15.10
2022-09-28T12:50:20.126Z,15.20
2022-09-28T12:52:06.777Z,15.20
2022-09-28T12:54:54.822Z,15.40
2022-09-28T12:57:49.674Z,15.60
2022-09-28T13:00:24.652Z,15.40
2022-09-28T13:03:09.794Z,15.10
2022-09-28T13:06:00.459Z,15.00
2022-09-28T13:09:09.000Z,15.00
2022-09-28T13:11:56.353Z,15.00
2022-09-28T13:14:44.745Z,14.70
2022-09-28T13:17:32.889Z,14.60
2022-09-28T13:20:13.053Z,14.70
2022-09-28T13:22:55.022Z,14.60
2022-09-28T13:25:25.459Z,14.70
2022-09-28T13:28:05.900Z,14.70
2022-09-28T13:30:36.220Z,14.80
2022-09-28T13:33:05.934Z,14.90
2022-09-28T13:35:35.249Z,14.80
2022-09-28T13:38:20.885Z,14.80
2022-09-28T13:41:09.855Z,14.80
2022-09-28T13:43:55.766Z,14.60
2022-09-28T13:46:38.276Z,14.50
2022-09-28T13:49:14.077Z,14.50
2022-09-28T13:52:09.643Z,14.40
2022-09-28T13:54:57.902Z,14.40
2022-09-28T13:57:51.349Z,14.30
2022-09-28T14:00:30.088Z,14.40
2022-09-28T14:03:38.700Z,14.40
2022-09-28T14:06:20.824Z,14.30
2022-09-28T14:09:12.676Z,14.40
2022-09-28T14:11:55.629Z,14.30
2022-09-28T14:14:29.928Z,14.40
2022-09-28T14:17:19.798Z,14.30
2022-09-28T14:20:15.003Z,14.30
2022-09-28T14:22:44.997Z,14.40
2022-09-28T14:25:25.502Z,14.40
2022-09-28T14:28:01.583Z,14.50
2022-09-28T14:30:44.611Z,14.70
2022-09-28T14:33:24.676Z,14.90
2022-09-28T14:35:59.504Z,15.00
2022-09-28T14:38:53.808Z,15.20
2022-09-28T14:41:29.503Z,15.20
2022-09-28T14:44:08.600Z,15.10
2022-09-28T14:46:47.421Z,14.70
2022-09-28T14:49:17.519Z,14.80
2022-09-28T14:51:53.430Z,14.70
2022-09-28T14:54:22.870Z,14.70
2022-09-28T14:56:58.006Z,14.70
2022-09-28T14:59:35.935Z,14.40
2022-09-28T15:02:15.148Z,14.30
2022-09-28T15:04:53.391Z,14.30
2022-09-28T15:07:23.229Z,14.30
2022-09-28T15:09:52.611Z,14.30
2022-09-28T15:12:27.583Z,14.30
2022-09-28T15:15:03.756Z,14.30
2022-09-28T15:17:39.185Z,14.30
2022-09-28T15:20:30.106Z,14.20
2022-09-28T15:23:02.051Z,14.10
2022-09-28T15:25:32.674Z,14.00
2022-09-28T15:28:22.052Z,14.00
2022-09-28T15:30:49.575Z,14.00
2022-09-28T15:33:53.771Z,13.90
2022-09-28T15:36:26.464Z,13.90
2022-09-28T15:39:08.721Z,13.80
2022-09-28T15:41:35.915Z,13.80
2022-09-28T15:44:29.351Z,13.70
2022-09-28T15:47:14.200Z,13.70
2022-09-28T15:49:57.128Z,13.50
2022-09-28T15:52:36.500Z,13.40
2022-09-28T15:55:16.724Z,13.20
2022-09-28T15:57:45.804Z,13.10
2022-09-28T16:00:31.634Z,13.00
2022-09-28T16:03:08.991Z,12.90
2022-09-28T16:06:01.370Z,12.70
2022-09-28T16:08:32.984Z,12.60
2022-09-28T16:11:23.890Z,12.50
2022-09-28T16:14:07.327Z,12.40
2022-09-28T16:16:40.307Z,12.30
2022-09-28T16:19:23.585Z,12.20
2022-09-28T16:21:52.991Z,12.10
2022-09-28T16:24:41.722Z,12.00
2022-09-28T16:27:28.643Z,11.90
2022-09-28T16:30:13.898Z,11.70
2022-09-28T16:32:56.513Z,11.60
2022-09-28T16:35:29.538Z,11.50
2022-09-28T16:38:16.619Z,11.40
2022-09-28T16:40:53.892Z,11.30
2022-09-28T16:43:29.321Z,11.20
2022-09-28T16:45:58.768Z,11.10
2022-09-28T16:48:32.020Z,11.00
2022-09-28T16:50:59.233Z,10.90
2022-09-28T16:53:47.762Z,10.90
2022-09-28T16:56:14.761Z,10.80
2022-09-28T16:58:42.420Z,10.70
2022-09-28T17:01:13.216Z,10.60
2022-09-28T17:03:44.214Z,10.60
2022-09-28T17:06:12.807Z,10.50
2022-09-28T17:08:43.045Z,10.50
2022-09-28T17:11:19.227Z,10.40
2022-09-28T17:13:58.788Z,10.30
2022-09-28T17:16:57.298Z,10.30
2022-09-28T17:19:22.369Z,10.30
2022-09-28T17:21:51.141Z,10.20
2022-09-28T17:24:20.875Z,10.20
2022-09-28T17:26:53.097Z,10.10
2022-09-28T17:29:20.129Z,10.00
2022-09-28T17:31:47.709Z,10.00
2022-09-28T17:34:16.135Z,9.90
2022-09-28T17:36:46.129Z,9.90
2022-09-28T17:39:15.609Z,9.90
2022-09-28T17:41:45.615Z,9.90
2022-09-28T17:44:16.209Z,10.00
2022-09-28T17:46:51.094Z,9.90
2022-09-28T17:49:18.747Z,9.90
2022-09-28T17:51:50.114Z,9.90
2022-09-28T17:54:20.852Z,9.90
2022-09-28T17:56:48.165Z,9.90
2022-09-28T17:59:22.881Z,9.80
2022-09-28T18:01:52.954Z,9.70
2022-09-28T18:04:47.274Z,9.70
2022-09-28T18:07:06.834Z,9.70
2022-09-28T18:09:33.767Z,9.70
2022-09-28T18:12:05.483Z,9.70
2022-09-28T18:14:32.515Z,9.70
2022-09-28T18:16:59.487Z,9.70
2022-09-28T18:19:31.725Z,9.80
2022-09-28T18:21:59.256Z,9.80
2022-09-28T18:24:28.203Z,9.80
2022-09-28T18:26:55.219Z,9.90
2022-09-28T18:29:24.893Z,9.90
2022-09-28T18:31:54.913Z,10.00
2022-09-28T18:34:21.900Z,10.10
2022-09-28T18:36:48.856Z,10.10
2022-09-28T18:39:16.367Z,10.10
2022-09-28T18:41:45.969Z,10.00
2022-09-28T18:44:15.431Z,10.00
2022-09-28T18:46:42.970Z,9.90
2022-09-28T18:49:12.486Z,9.80
2022-09-28T18:51:51.235Z,9.60
2022-09-28T18:54:18.189Z,9.50
2022-09-28T18:56:48.248Z,9.40
2022-09-28T18:59:15.480Z,9.40
2022-09-28T19:01:45.434Z,9.40
2022-09-28T19:04:13.562Z,9.30
2022-09-28T19:06:42.827Z,9.30
2022-09-28T19:09:13.214Z,9.20
2022-09-28T19:11:40.290Z,9.10
2022-09-28T19:14:10.997Z,9.00
2022-09-28T19:16:40.895Z,8.80
2022-09-28T19:19:09.188Z,8.80
2022-09-28T19:21:45.054Z,8.70
2022-09-28T19:24:18.216Z,8.60
2022-09-28T19:26:58.266Z,8.50
2022-09-28T19:29:27.501Z,8.50
2022-09-28T19:32:00.155Z,8.40
2022-09-28T19:34:33.711Z,8.40
2022-09-28T19:37:04.125Z,8.40
2022-09-28T19:39:33.562Z,8.40
2022-09-28T19:42:05.198Z,8.40
2022-09-28T19:44:33.467Z,8.40
2022-09-28T19:47:09.872Z,8.60
2022-09-28T19:49:41.487Z,8.60
2022-09-28T19:52:17.338Z,8.70
2022-09-28T19:54:56.791Z,8.60
2022-09-28T19:57:29.226Z,8.50
2022-09-28T20:00:01.991Z,8.40
2022-09-28T20:02:35.602Z,8.20
2022-09-28T20:05:02.844Z,8.10
2022-09-28T20:07:35.680Z,8.10
2022-09-28T20:10:07.884Z,8.00
2022-09-28T20:12:34.871Z,7.90
2022-09-28T20:15:10.613Z,7.90
2022-09-28T20:17:37.854Z,7.80
2022-09-28T20:20:05.184Z,7.80
2022-09-28T20:22:32.216Z,7.80
2022-09-28T20:25:00.024Z,7.70
2022-09-28T20:27:27.046Z,7.70
2022-09-28T20:29:54.068Z,7.60
2022-09-28T20:32:21.067Z,7.60
2022-09-28T20:34:50.457Z,7.50
2022-09-28T20:37:17.571Z,7.50
2022-09-28T20:39:45.346Z,7.50
2022-09-28T20:42:15.749Z,7.50
2022-09-28T20:44:45.283Z,7.50
2022-09-28T20:47:19.923Z,7.40
2022-09-28T20:49:47.530Z,7.30
2022-09-28T20:52:14.489Z,7.30
2022-09-28T20:54:41.371Z,7.30
2022-09-28T20:57:20.111Z,7.20
2022-09-28T20:59:52.168Z,7.20
2022-09-28T21:02:27.059Z,7.20
2022-09-28T21:04:54.191Z,7.10
2022-09-28T21:07:21.100Z,7.10
2022-09-28T21:09:48.481Z,7.00
2022-09-28T21:12:20.171Z,7.00
2022-09-28T21:14:49.152Z,6.90
2022-09-28T21:17:16.189Z,6.90
2022-09-28T21:19:43.277Z,6.90
2022-09-28T21:22:10.274Z,6.80
2022-09-28T21:24:37.743Z,6.80
2022-09-28T21:27:07.139Z,6.70
2022-09-28T21:29:34.052Z,6.70
2022-09-28T21:32:01.151Z,6.70
2022-09-28T21:34:30.130Z,6.70
2022-09-28T21:36:57.033Z,6.70
2022-09-28T21:39:28.634Z,6.70
2022-09-28T21:41:57.915Z,6.60
2022-09-28T21:44:24.730Z,6.60
2022-09-28T21:46:54.261Z,6.60
2022-09-28T21:49:23.162Z,6.60
2022-09-28T21:51:52.619Z,6.60
2022-09-28T21:54:19.675Z,6.60
2022-09-28T21:56:49.253Z,6.60
2022-09-28T21:59:16.280Z,6.60
2022-09-28T22:01:45.461Z,6.60
2022-09-28T22:04:12.539Z,6.60
2022-09-28T22:06:42.135Z,6.60
2022-09-28T22:09:13.769Z,6.60
2022-09-28T22:11:42.830Z,6.60
2022-09-28T22:14:12.257Z,6.60
2022-09-28T22:16:39.233Z,6.50
2022-09-28T22:19:06.136Z,6.50
